メインページ
METAR-TAF:

METAR-TAF

空港 :

バーレーン, バーレーン

バーレーン国際空港

緯度: 26-16N, 経度: 050-39E, 海抜: 2m

現時点の気象観測

当レポートは40分前の14:00(UTC)に作成
北西の風 18kt
気温 17°C
湿度 59%
気圧 1021 hPa
視程: 7000m
高度4000ftの雲は散在している

METAR: OBBI 211400Z 31018KT 7000 SCT040 17/09 Q1021 BECMG 5000

時間: 17:40 (14:40 UTC)

予報

当レポートは3時間40分前の11:00(UTC)に作成
予報は21日の 12時(UTC)から 22日の 18時(UTC)まで有効
北西の風 15kt、最大25ktの突風を伴う
視程: 8000m
高度3000ftの雲は散在している
21日の 12時(UTC)から 21日の 20時(UTC)まで一時的に
視程: 3500m
広範な塵
21日の 18時(UTC)から 21日の 20時(UTC)まで徐々に
北/北西の風 13kt
22日の 16時(UTC)から 22日の 18時(UTC)まで徐々に
変向風 5kt

TAF: OBBI 211100Z 2112/2218 31015G25KT 8000 SCT030 TEMPO 2112/2120 3500 DU BECMG 2118/2120 33013KT BECMG 2216/2218 VRB05KT

4,000以上の空港の気象観測と天気予報(METAR報とTAF報)

利用可能な観測所は地図上に黄色い丸と赤い丸で示す。

丸の上にカーソルを重ねると観測所名を参照できる。

次にクリックすると気象観測と天気予報を参照できる。

マップの切り替え:黒色「×」印の緑ボタンをクリックして拡大、「-」印の緑ボタンをクリックして縮小、緑色の三角印をクリックして隣りの地図に切り替え


METAR-TAF: